Time;durP1;ratioP1;P1;durP2;ratioP2;P2;SDS_P1;SDS_P2;PMS_P1;PMS_P2;Temp;Humidity;BMP_temperature;BMP_pressure;BME280_temperature;BME280_humidity;BME280_pressure;Samples;Min_cycle;Max_cycle;Signal;HPM_P1;HPM_P2
2022/08/13 00:02:09;;;;;;;4.65;1.70;;;16.50;77.10;;;;;;5077530;28;20064;-67
2022/08/13 00:04:35;;;;;;;4.60;1.73;;;16.50;77.10;;;;;;5057229;28;20061;-66
2022/08/13 00:07:10;;;;;;;3.75;1.80;;;16.50;77.10;;;;;;5064089;28;20051;-66
2022/08/13 00:09:39;;;;;;;4.90;1.60;;;16.50;77.20;;;;;;5066008;28;20044;-66
2022/08/13 00:14:57;;;;;;;3.72;1.63;;;16.40;77.60;;;;;;5060357;28;20040;-66
2022/08/13 00:17:22;;;;;;;3.38;1.70;;;16.30;77.90;;;;;;5057171;28;20036;-65
2022/08/13 00:19:50;;;;;;;5.38;1.90;;;16.30;78.40;;;;;;5074617;28;20020;-64
2022/08/13 00:22:19;;;;;;;3.10;1.58;;;16.30;78.60;;;;;;5077126;28;20034;-65
2022/08/13 00:24:45;;;;;;;4.63;1.63;;;16.30;78.70;;;;;;5056986;28;20029;-65
2022/08/13 00:27:11;;;;;;;5.00;2.05;;;16.30;78.80;;;;;;5056874;28;20029;-64
2022/08/13 00:29:40;;;;;;;3.10;1.70;;;16.30;78.90;;;;;;5060601;28;20024;-66
2022/08/13 00:32:06;;;;;;;5.75;1.70;;;16.30;79.00;;;;;;5076096;28;20472;-66
2022/08/13 00:34:32;;;;;;;3.90;1.83;;;16.30;79.10;;;;;;5063816;28;20108;-66
2022/08/13 00:36:57;;;;;;;4.97;1.88;;;16.30;79.20;;;;;;5075660;28;20295;-66
2022/08/13 00:39:23;;;;;;;3.40;1.60;;;16.30;79.20;;;;;;5062025;28;20025;-67
2022/08/13 00:41:49;;;;;;;4.78;1.75;;;16.20;79.60;;;;;;5055362;28;20494;-66
2022/08/13 00:44:17;;;;;;;4.32;2.03;;;16.20;79.90;;;;;;5056135;28;20032;-66
2022/08/13 00:46:43;;;;;;;4.28;1.80;;;16.10;80.30;;;;;;5073807;28;20024;-66
2022/08/13 00:49:11;;;;;;;4.65;2.00;;;16.20;80.30;;;;;;5074966;28;20325;-66
2022/08/13 00:51:38;;;;;;;3.55;1.90;;;16.10;80.50;;;;;;5075498;28;20052;-66
2022/08/13 00:54:10;;;;;;;4.72;1.90;;;16.10;80.20;;;;;;5071045;28;20024;-66
2022/08/13 00:56:37;;;;;;;4.15;2.00;;;16.30;79.70;;;;;;5074088;28;20025;-66
2022/08/13 00:59:14;;;;;;;4.72;1.85;;;16.30;79.90;;;;;;5058981;28;20037;-66
2022/08/13 01:01:43;;;;;;;4.60;2.10;;;16.40;79.40;;;;;;5076139;28;20024;-66
2022/08/13 01:04:09;;;;;;;4.28;1.73;;;16.40;79.80;;;;;;5074699;28;20057;-66
2022/08/13 01:06:35;;;;;;;3.95;1.80;;;16.20;80.40;;;;;;5075292;28;20107;-66
2022/08/13 01:09:03;;;;;;;5.80;1.88;;;16.00;81.10;;;;;;5067476;28;20441;-66
2022/08/13 01:11:32;;;;;;;4.18;1.83;;;15.80;82.00;;;;;;5071443;28;20028;-66
2022/08/13 01:14:02;;;;;;;3.42;1.88;;;15.70;82.10;;;;;;5074505;28;20027;-66
2022/08/13 01:16:32;;;;;;;3.38;1.88;;;15.50;82.90;;;;;;5074220;28;20032;-66
2022/08/13 01:19:02;;;;;;;4.78;2.13;;;15.30;83.30;;;;;;5061684;28;20025;-66
2022/08/13 01:21:44;;;;;;;3.33;1.90;;;15.20;83.90;;;;;;5060835;28;20033;-66
2022/08/13 01:24:11;;;;;;;3.42;1.83;;;15.00;84.80;;;;;;5069428;28;20028;-66
2022/08/13 01:26:39;;;;;;;3.35;1.92;;;14.70;85.90;;;;;;5068813;28;20024;-66
2022/08/13 01:29:06;;;;;;;4.05;1.90;;;14.60;86.50;;;;;;5069639;28;20029;-67
2022/08/13 01:31:34;;;;;;;3.40;2.08;;;14.40;87.40;;;;;;5073112;28;20023;-66
2022/08/13 01:34:01;;;;;;;3.80;2.05;;;14.40;87.90;;;;;;5072379;28;20025;-66
2022/08/13 01:36:30;;;;;;;5.80;2.30;;;14.40;88.10;;;;;;5075354;28;20036;-66
2022/08/13 01:39:04;;;;;;;5.05;2.30;;;14.40;88.30;;;;;;5071802;28;21520;-66
2022/08/13 01:41:34;;;;;;;5.18;2.50;;;14.40;88.30;;;;;;5066557;28;20028;-66
2022/08/13 01:44:06;;;;;;;5.63;2.50;;;14.40;88.30;;;;;;5072585;28;20375;-66
2022/08/13 01:52:04;;;;;;;4.70;2.33;;;15.00;86.70;;;;;;5071211;28;20078;-67
2022/08/13 01:54:31;;;;;;;6.88;2.17;;;15.00;86.60;;;;;;5067331;28;20028;-66
2022/08/13 01:57:03;;;;;;;4.32;2.42;;;15.10;86.50;;;;;;5068132;28;20429;-66
2022/08/13 01:59:29;;;;;;;4.38;2.30;;;15.00;86.50;;;;;;5065594;28;20036;-66
2022/08/13 02:01:57;;;;;;;4.63;2.30;;;15.10;86.60;;;;;;5065113;28;20074;-66
2022/08/13 02:04:22;;;;;;;6.15;2.20;;;15.20;86.30;;;;;;5069808;28;20020;-66
2022/08/13 02:06:49;;;;;;;3.50;2.25;;;15.20;86.20;;;;;;5066307;28;20025;-66
2022/08/13 02:09:14;;;;;;;4.03;2.28;;;15.30;86.00;;;;;;5067867;28;20123;-66
2022/08/13 02:11:41;;;;;;;7.32;3.42;;;15.30;86.00;;;;;;5058498;28;20096;-66
2022/08/13 02:14:08;;;;;;;6.35;2.72;;;15.30;85.90;;;;;;5071894;28;20052;-66
2022/08/13 02:16:36;;;;;;;4.88;2.40;;;15.20;86.10;;;;;;5064924;28;20130;-66
2022/08/13 02:19:11;;;;;;;6.07;2.40;;;15.30;86.00;;;;;;5065291;28;20029;-66
2022/08/13 02:21:39;;;;;;;4.50;2.30;;;15.40;85.50;;;;;;5072975;28;20020;-66
2022/08/13 02:24:13;;;;;;;4.15;2.10;;;15.30;85.80;;;;;;5074958;28;20115;-66
2022/08/13 02:26:43;;;;;;;3.78;2.20;;;15.30;86.10;;;;;;5073392;28;20024;-66
2022/08/13 02:29:11;;;;;;;4.40;2.45;;;15.10;86.40;;;;;;5074317;28;20025;-66
2022/08/13 02:31:37;;;;;;;4.47;2.38;;;15.10;86.90;;;;;;5069158;28;20017;-66
2022/08/13 02:34:03;;;;;;;4.22;2.67;;;15.00;87.30;;;;;;5072789;28;20025;-66
2022/08/13 02:36:30;;;;;;;5.00;2.83;;;15.00;87.70;;;;;;5074676;28;20317;-67
2022/08/13 02:39:01;;;;;;;5.55;2.67;;;15.00;87.80;;;;;;5073026;28;20032;-66
2022/08/13 02:41:39;;;;;;;4.38;2.60;;;15.00;87.80;;;;;;5064473;28;20458;-66
2022/08/13 02:44:06;;;;;;;4.35;2.65;;;15.00;87.70;;;;;;5070913;28;20036;-66
2022/08/13 02:46:32;;;;;;;4.25;2.80;;;15.00;87.70;;;;;;5072219;28;20067;-66
2022/08/13 02:48:58;;;;;;;4.38;2.90;;;14.90;88.00;;;;;;5071969;28;20363;-66
2022/08/13 02:51:25;;;;;;;3.97;2.65;;;14.90;88.20;;;;;;5071217;28;20028;-66
2022/08/13 02:53:52;;;;;;;4.68;2.60;;;14.80;88.50;;;;;;5074354;28;20078;-65
2022/08/13 02:56:18;;;;;;;7.90;2.70;;;14.80;88.50;;;;;;5063622;28;20064;-66
2022/08/13 02:58:45;;;;;;;5.75;2.80;;;14.80;88.40;;;;;;5069382;28;20068;-66
2022/08/13 03:01:13;;;;;;;4.97;2.60;;;14.80;88.30;;;;;;5073507;28;20086;-66
2022/08/13 03:03:40;;;;;;;4.10;2.67;;;14.80;88.60;;;;;;5071974;28;20028;-66
2022/08/13 03:06:08;;;;;;;6.97;2.60;;;14.70;88.70;;;;;;5072778;28;20028;-66
2022/08/13 03:08:36;;;;;;;6.53;2.60;;;14.70;88.90;;;;;;5067405;28;20160;-66
2022/08/13 03:11:04;;;;;;;4.60;2.75;;;14.60;88.90;;;;;;5065821;28;20025;-65
2022/08/13 03:13:33;;;;;;;5.25;2.53;;;14.60;89.30;;;;;;5067307;28;20024;-64
2022/08/13 03:16:01;;;;;;;4.10;2.42;;;14.60;89.10;;;;;;5072976;28;20016;-64
2022/08/13 03:18:29;;;;;;;5.25;2.80;;;14.60;89.00;;;;;;5072056;28;20176;-64
2022/08/13 03:20:54;;;;;;;3.72;2.28;;;14.60;89.10;;;;;;5071216;28;20028;-64
2022/08/13 03:23:22;;;;;;;5.53;2.67;;;14.50;89.20;;;;;;5070593;28;20029;-66
2022/08/13 03:25:50;;;;;;;6.22;2.97;;;14.50;89.60;;;;;;5069829;28;20035;-66
2022/08/13 03:28:15;;;;;;;5.07;2.63;;;14.50;89.60;;;;;;5073974;28;20032;-67
2022/08/13 03:30:41;;;;;;;6.07;2.80;;;14.40;89.80;;;;;;5072547;28;20043;-66
2022/08/13 03:33:10;;;;;;;3.97;2.50;;;14.40;89.80;;;;;;5072586;28;20025;-66
2022/08/13 03:35:37;;;;;;;4.50;2.67;;;14.40;89.90;;;;;;5070619;28;20099;-66
2022/08/13 03:38:05;;;;;;;5.93;2.70;;;14.40;90.10;;;;;;5073814;28;20036;-66
2022/08/13 03:41:00;;;;;;;6.63;2.70;;;14.30;90.20;;;;;;5068954;28;20024;-66
2022/08/13 03:43:18;;;;;;;4.00;2.50;;;14.20;90.50;;;;;;5067759;28;20029;-66
2022/08/13 03:45:45;;;;;;;4.50;2.63;;;14.10;90.80;;;;;;5071542;28;20025;-67
2022/08/13 03:48:15;;;;;;;7.78;3.00;;;14.00;91.20;;;;;;5072868;28;20440;-66
2022/08/13 03:50:42;;;;;;;4.68;2.80;;;14.00;91.40;;;;;;5063728;28;20036;-66
2022/08/13 03:53:09;;;;;;;6.07;2.78;;;13.80;91.90;;;;;;5071796;28;20329;-66
2022/08/13 03:55:37;;;;;;;4.80;3.00;;;13.80;92.30;;;;;;5068054;28;20023;-66
2022/08/13 03:58:05;;;;;;;6.53;3.25;;;13.90;92.20;;;;;;5072921;28;20337;-66
2022/08/13 04:00:33;;;;;;;5.15;2.80;;;14.00;92.10;;;;;;5073628;28;20034;-66
2022/08/13 04:03:00;;;;;;;4.55;2.70;;;14.00;91.80;;;;;;5072974;28;20309;-66
2022/08/13 04:05:26;;;;;;;5.05;2.60;;;14.10;91.50;;;;;;5069165;28;20029;-66
2022/08/13 04:07:52;;;;;;;5.78;3.00;;;14.20;91.40;;;;;;5070881;28;20112;-66
2022/08/13 04:10:19;;;;;;;4.78;2.90;;;14.20;91.30;;;;;;5070361;28;20352;-66
2022/08/13 04:12:45;;;;;;;4.25;2.70;;;14.20;91.10;;;;;;5071792;28;20035;-67
2022/08/13 04:15:11;;;;;;;5.78;2.97;;;14.10;91.20;;;;;;5070071;28;20029;-66
2022/08/13 04:17:37;;;;;;;6.35;2.92;;;14.00;91.60;;;;;;5073155;28;20013;-66
2022/08/13 04:20:12;;;;;;;6.95;2.78;;;14.00;91.50;;;;;;5065559;28;20064;-67
2022/08/13 04:22:40;;;;;;;5.10;3.00;;;14.00;91.60;;;;;;5072417;28;20028;-66
2022/08/13 04:25:07;;;;;;;4.90;3.03;;;14.00;91.80;;;;;;5070446;28;20112;-66
2022/08/13 04:27:34;;;;;;;5.72;2.78;;;14.00;91.80;;;;;;5069878;28;20031;-67
2022/08/13 04:30:04;;;;;;;5.82;2.83;;;14.00;91.80;;;;;;5064847;28;20029;-66
2022/08/13 04:32:40;;;;;;;4.47;2.58;;;14.00;91.80;;;;;;5068096;28;20021;-67
2022/08/13 04:35:06;;;;;;;4.80;2.83;;;14.10;91.80;;;;;;5069357;28;20078;-66
2022/08/13 04:37:32;;;;;;;4.47;2.65;;;14.20;91.80;;;;;;5066753;28;20028;-66
2022/08/13 04:39:57;;;;;;;3.95;2.70;;;14.40;91.30;;;;;;5070155;28;20090;-66
2022/08/13 04:42:23;;;;;;;3.95;2.50;;;14.50;91.00;;;;;;5069366;28;20569;-66
2022/08/13 04:44:49;;;;;;;4.60;3.00;;;14.40;91.00;;;;;;5067960;28;20024;-65
2022/08/13 04:47:15;;;;;;;4.47;2.63;;;14.10;91.40;;;;;;5070669;28;20028;-66
2022/08/13 04:49:40;;;;;;;4.57;2.88;;;13.90;92.10;;;;;;5069176;28;20113;-66
2022/08/13 04:52:06;;;;;;;6.03;3.10;;;13.70;92.80;;;;;;5068523;28;20294;-66
2022/08/13 04:54:31;;;;;;;5.50;2.75;;;13.50;93.30;;;;;;5071575;28;20036;-66
2022/08/13 04:56:57;;;;;;;5.05;3.10;;;13.30;93.80;;;;;;5056809;28;20028;-66
2022/08/13 04:59:23;;;;;;;5.88;3.13;;;13.10;94.30;;;;;;5071818;28;20025;-66
2022/08/13 05:01:50;;;;;;;4.40;2.88;;;13.00;94.60;;;;;;5072217;28;20712;-66
2022/08/13 05:04:17;;;;;;;5.57;2.90;;;12.90;94.90;;;;;;5071533;28;20025;-66
2022/08/13 05:06:43;;;;;;;5.55;2.95;;;12.80;95.30;;;;;;5062970;28;22098;-67
2022/08/13 05:09:09;;;;;;;4.78;3.40;;;12.80;95.50;;;;;;5072675;28;20444;-66
2022/08/13 05:11:34;;;;;;;6.20;3.03;;;12.70;95.50;;;;;;5067457;28;20029;-67
2022/08/13 05:14:00;;;;;;;5.55;3.58;;;12.60;95.70;;;;;;5074125;28;20028;-66
2022/08/13 05:16:26;;;;;;;5.80;3.10;;;12.60;95.80;;;;;;5068105;28;20325;-66
2022/08/13 05:18:54;;;;;;;4.63;2.88;;;12.60;95.90;;;;;;5059638;28;20025;-66
2022/08/13 05:21:23;;;;;;;5.20;3.58;;;12.70;96.00;;;;;;5060693;28;20043;-66
2022/08/13 05:23:53;;;;;;;4.68;2.97;;;12.70;95.90;;;;;;5073731;28;20077;-65
2022/08/13 05:26:23;;;;;;;6.05;3.28;;;12.70;95.90;;;;;;5074113;28;20032;-66
2022/08/13 05:28:50;;;;;;;7.10;3.20;;;12.70;96.00;;;;;;5074620;28;20028;-66
2022/08/13 05:31:17;;;;;;;4.95;3.03;;;12.80;96.10;;;;;;5062109;28;20472;-66
2022/08/13 05:33:42;;;;;;;5.63;2.97;;;12.90;95.90;;;;;;5060724;28;20070;-66
2022/08/13 05:36:09;;;;;;;5.38;3.70;;;12.90;95.90;;;;;;5067340;28;20360;-66
2022/08/13 05:38:36;;;;;;;4.75;3.00;;;13.10;96.00;;;;;;5062819;28;20047;-66
2022/08/13 05:41:04;;;;;;;5.88;3.10;;;13.20;95.90;;;;;;5065503;28;20033;-66
2022/08/13 05:43:36;;;;;;;5.50;3.33;;;13.40;96.00;;;;;;5064867;28;20031;-66
2022/08/13 05:46:07;;;;;;;6.95;3.78;;;13.50;95.60;;;;;;5064754;28;20055;-66
2022/08/13 05:48:34;;;;;;;6.65;3.33;;;13.70;95.60;;;;;;5071077;28;20031;-66
2022/08/13 05:51:03;;;;;;;5.95;2.95;;;13.90;95.20;;;;;;5075808;28;20104;-66
2022/08/13 05:53:31;;;;;;;5.28;2.90;;;14.10;94.90;;;;;;5064913;28;20414;-66
2022/08/13 05:55:56;;;;;;;6.35;2.70;;;14.20;94.50;;;;;;5067926;28;20032;-66
2022/08/13 05:58:23;;;;;;;5.35;3.03;;;14.30;93.80;;;;;;5073381;28;21578;-66
2022/08/13 06:03:36;;;;;;;6.00;2.85;;;14.70;92.90;;;;;;5067763;28;20345;-66
2022/08/13 06:06:05;;;;;;;4.60;3.00;;;14.90;92.30;;;;;;5071319;28;20027;-65
2022/08/13 06:08:36;;;;;;;4.18;2.40;;;15.00;91.60;;;;;;5078404;28;20048;-65
2022/08/13 06:11:05;;;;;;;5.05;2.78;;;15.20;90.80;;;;;;5068687;28;20020;-65
2022/08/13 06:13:33;;;;;;;4.88;2.85;;;15.40;90.80;;;;;;5051260;28;20025;-65
2022/08/13 06:16:00;;;;;;;5.88;2.40;;;15.60;90.40;;;;;;5050518;28;20556;-65
2022/08/13 06:18:38;;;;;;;4.00;2.50;;;15.70;89.40;;;;;;5060284;28;20157;-66
2022/08/13 06:21:06;;;;;;;5.10;2.72;;;15.90;88.60;;;;;;5069218;28;20112;-66
2022/08/13 06:23:35;;;;;;;4.75;2.40;;;16.00;88.10;;;;;;5065258;28;20033;-66
2022/08/13 06:26:02;;;;;;;3.65;2.20;;;16.20;88.00;;;;;;5058194;28;20029;-66
2022/08/13 06:28:30;;;;;;;6.57;2.40;;;16.40;87.80;;;;;;5059140;28;20029;-67
2022/08/13 06:31:00;;;;;;;4.43;2.63;;;16.60;87.20;;;;;;5058888;28;20028;-66
2022/08/13 06:33:30;;;;;;;4.95;2.47;;;16.80;86.90;;;;;;5059188;28;20021;-66
2022/08/13 06:35:59;;;;;;;3.70;2.30;;;16.80;85.90;;;;;;5059016;28;20024;-67
2022/08/13 06:38:27;;;;;;;4.97;2.30;;;17.00;85.70;;;;;;5069122;28;20476;-66
2022/08/13 06:40:54;;;;;;;5.57;2.65;;;17.10;85.50;;;;;;5077052;28;20028;-66
2022/08/13 06:43:21;;;;;;;5.43;2.78;;;17.20;83.90;;;;;;5078633;28;20032;-67
2022/08/13 06:45:47;;;;;;;4.97;2.50;;;17.40;84.50;;;;;;5066209;28;20032;-66
2022/08/13 06:48:14;;;;;;;5.78;2.58;;;17.50;84.20;;;;;;5052905;28;20032;-66
2022/08/13 06:50:40;;;;;;;5.43;2.58;;;17.70;83.40;;;;;;5053308;28;20357;-65
2022/08/13 06:53:08;;;;;;;4.93;2.63;;;17.80;83.20;;;;;;5056726;28;20120;-65
2022/08/13 06:55:39;;;;;;;5.13;2.28;;;18.00;81.10;;;;;;5055316;28;20026;-65
2022/08/13 06:58:10;;;;;;;5.20;2.30;;;18.30;80.00;;;;;;5054664;28;20024;-65
2022/08/13 07:00:41;;;;;;;4.50;2.15;;;18.60;78.40;;;;;;5062939;28;20321;-65
2022/08/13 07:03:10;;;;;;;7.05;2.20;;;18.90;77.40;;;;;;5068895;28;20416;-66
2022/08/13 07:05:44;;;;;;;4.35;1.75;;;19.20;76.30;;;;;;5070060;28;20417;-65
2022/08/13 07:08:11;;;;;;;4.57;2.15;;;19.50;75.60;;;;;;5067788;28;20044;-66
2022/08/13 07:10:50;;;;;;;5.88;2.03;;;19.70;74.70;;;;;;5053353;28;20582;-65
2022/08/13 07:13:18;;;;;;;6.35;2.40;;;19.90;73.10;;;;;;5058056;28;20294;-66
2022/08/13 07:15:51;;;;;;;4.65;2.10;;;19.90;74.10;;;;;;5052282;28;20081;-65
2022/08/13 07:18:17;;;;;;;4.20;2.40;;;19.70;76.20;;;;;;5058444;28;20345;-66
2022/08/13 07:20:43;;;;;;;5.60;2.45;;;19.60;77.10;;;;;;5052802;28;20028;-65
2022/08/13 07:23:11;;;;;;;4.07;2.05;;;19.60;77.20;;;;;;5068569;28;20020;-66
2022/08/13 07:25:39;;;;;;;7.47;2.45;;;19.60;74.70;;;;;;5060488;28;20028;-65
2022/08/13 07:28:05;;;;;;;5.07;2.40;;;19.80;74.80;;;;;;5067461;28;20025;-65
2022/08/13 07:30:31;;;;;;;6.03;2.25;;;19.90;75.20;;;;;;5053421;28;20024;-66
2022/08/13 07:32:57;;;;;;;4.25;2.42;;;19.80;76.90;;;;;;5067451;28;20043;-65
2022/08/13 07:35:23;;;;;;;4.85;2.40;;;19.60;77.40;;;;;;5058184;28;21742;-65
2022/08/13 07:37:52;;;;;;;5.28;2.30;;;19.80;77.50;;;;;;5059237;28;20032;-66
2022/08/13 07:40:19;;;;;;;6.82;2.50;;;19.90;77.10;;;;;;5069823;28;20472;-65
2022/08/13 07:42:45;;;;;;;5.22;1.92;;;19.90;76.50;;;;;;5055196;28;20032;-66
2022/08/13 07:45:20;;;;;;;5.38;2.22;;;19.90;76.80;;;;;;5054495;28;20033;-65
2022/08/13 07:47:50;;;;;;;4.32;2.00;;;20.00;77.20;;;;;;5054142;28;20024;-65
2022/08/13 07:50:17;;;;;;;6.38;2.33;;;20.20;76.70;;;;;;5053591;28;20039;-66
2022/08/13 07:52:43;;;;;;;5.18;2.53;;;20.90;73.80;;;;;;5053895;28;20025;-65
2022/08/13 07:55:08;;;;;;;3.70;2.00;;;21.70;71.70;;;;;;5073807;28;20020;-66
2022/08/13 07:57:36;;;;;;;3.80;2.10;;;22.40;70.50;;;;;;5056431;28;20087;-65
2022/08/13 08:00:06;;;;;;;6.25;2.53;;;23.40;68.30;;;;;;5063878;28;20039;-66
2022/08/13 08:02:32;;;;;;;4.45;2.30;;;23.80;66.00;;;;;;5055019;28;20037;-66
2022/08/13 08:04:58;;;;;;;5.00;2.40;;;23.50;67.00;;;;;;5053891;28;20036;-66
2022/08/13 08:07:27;;;;;;;4.05;2.00;;;23.30;67.10;;;;;;5052571;28;20110;-66
2022/08/13 08:09:53;;;;;;;4.38;2.17;;;23.50;67.30;;;;;;5068448;28;20105;-66
2022/08/13 08:12:35;;;;;;;4.25;2.20;;;24.20;65.70;;;;;;5055786;28;20412;-65
2022/08/13 08:15:11;;;;;;;3.65;2.20;;;24.10;65.30;;;;;;5059589;28;20055;-66
2022/08/13 08:17:37;;;;;;;4.13;2.20;;;24.10;66.00;;;;;;5054293;28;20341;-66
2022/08/13 08:20:06;;;;;;;5.10;2.28;;;24.70;64.70;;;;;;5052676;28;20125;-66
2022/08/13 08:22:33;;;;;;;5.03;2.35;;;25.20;63.20;;;;;;5067591;28;20024;-66
2022/08/13 08:25:00;;;;;;;4.45;2.05;;;25.60;62.60;;;;;;5072117;28;20043;-66
2022/08/13 08:27:26;;;;;;;3.30;1.70;;;25.90;62.20;;;;;;5069386;28;20147;-66
2022/08/13 08:29:52;;;;;;;3.92;1.83;;;26.40;61.10;;;;;;5070125;28;20032;-66
2022/08/13 08:32:19;;;;;;;4.93;2.03;;;26.50;60.30;;;;;;5079978;28;20426;-67
2022/08/13 08:34:47;;;;;;;6.30;2.05;;;26.10;60.40;;;;;;5076739;28;20017;-66
2022/08/13 08:42:35;;;;;;;4.63;1.95;;;26.50;58.30;;;;;;5061714;28;20441;-66
2022/08/13 08:42:53;;;;;;;5.13;1.80;;;27.30;59.10;;;;;;5056974;28;20116;-66
2022/08/13 08:45:20;;;;;;;5.35;1.60;;;27.40;57.80;;;;;;5058097;28;20039;-66
2022/08/13 08:47:48;;;;;;;4.20;2.00;;;27.40;56.70;;;;;;5065223;28;20416;-66
2022/08/13 08:50:15;;;;;;;4.28;1.60;;;27.90;57.10;;;;;;5068760;28;20361;-66
2022/08/13 08:55:27;;;;;;;3.60;1.65;;;28.60;55.30;;;;;;5075510;28;20035;-66
2022/08/13 08:57:53;;;;;;;5.00;1.98;;;28.20;57.00;;;;;;5076516;28;20020;-66
2022/08/13 09:00:21;;;;;;;5.78;2.10;;;27.80;56.80;;;;;;5076250;28;20094;-66
2022/08/13 09:02:52;;;;;;;5.40;1.70;;;27.30;58.40;;;;;;5074203;28;20020;-65
2022/08/13 09:05:24;;;;;;;3.83;1.60;;;27.10;60.10;;;;;;5076103;28;20021;-64
2022/08/13 09:07:50;;;;;;;3.75;1.80;;;28.00;56.80;;;;;;5075757;28;21321;-65
2022/08/13 09:10:22;;;;;;;6.65;1.65;;;28.90;56.60;;;;;;5073211;28;20025;-64
2022/08/13 09:12:50;;;;;;;5.63;1.90;;;29.80;53.40;;;;;;5076218;28;20028;-65
2022/08/13 09:15:18;;;;;;;5.50;1.70;;;30.20;51.70;;;;;;5076215;28;20483;-65
2022/08/13 09:17:45;;;;;;;4.10;1.77;;;30.80;50.50;;;;;;5076205;28;20097;-65
2022/08/13 09:20:17;;;;;;;6.88;1.95;;;31.30;51.40;;;;;;5075978;28;20020;-65
2022/08/13 09:22:47;;;;;;;5.28;1.30;;;31.90;50.90;;;;;;5076110;28;20025;-65
2022/08/13 09:25:16;;;;;;;5.75;1.50;;;32.30;47.40;;;;;;5074044;28;20107;-65
2022/08/13 09:27:47;;;;;;;4.18;1.33;;;31.80;46.00;;;;;;5075080;28;20382;-65
2022/08/13 09:30:16;;;;;;;4.20;1.50;;;31.30;46.30;;;;;;5075902;28;20078;-65
2022/08/13 09:32:42;;;;;;;4.32;1.67;;;30.90;45.90;;;;;;5066443;28;20146;-65
2022/08/13 09:35:08;;;;;;;6.60;1.55;;;29.80;46.80;;;;;;5055773;28;20142;-65
2022/08/13 09:37:34;;;;;;;6.25;1.77;;;28.90;47.90;;;;;;5073794;28;20054;-65
2022/08/13 09:40:02;;;;;;;3.15;1.50;;;28.10;49.60;;;;;;5072846;28;20024;-65
2022/08/13 09:42:37;;;;;;;5.53;1.80;;;27.70;50.30;;;;;;5055858;28;20029;-65
2022/08/13 09:45:04;;;;;;;3.42;1.33;;;27.50;50.60;;;;;;5056540;28;20040;-65
2022/08/13 09:47:31;;;;;;;6.53;1.40;;;27.20;51.40;;;;;;5075658;28;20028;-65
2022/08/13 09:49:56;;;;;;;3.50;1.60;;;27.20;51.60;;;;;;5074064;28;20033;-65
2022/08/13 09:52:23;;;;;;;7.35;1.85;;;26.80;54.50;;;;;;5075792;28;20086;-65
2022/08/13 09:54:49;;;;;;;4.45;2.10;;;26.70;57.00;;;;;;5074530;28;20025;-66
2022/08/13 09:57:20;;;;;;;3.40;1.88;;;26.60;58.70;;;;;;5074306;28;20123;-67
2022/08/13 09:59:49;;;;;;;6.45;1.95;;;26.80;58.00;;;;;;5073036;28;20031;-65
2022/08/13 10:02:15;;;;;;;4.75;2.00;;;27.20;56.60;;;;;;5075327;28;20035;-66
2022/08/13 10:04:42;;;;;;;6.18;2.15;;;27.90;57.90;;;;;;5075541;28;20029;-66
2022/08/13 10:07:09;;;;;;;5.40;2.10;;;28.70;56.80;;;;;;5075561;28;20021;-66
2022/08/13 10:09:36;;;;;;;4.50;2.22;;;29.40;54.70;;;;;;5074277;28;20334;-65
2022/08/13 10:12:04;;;;;;;3.30;1.73;;;29.80;55.10;;;;;;5055061;28;20096;-65
2022/08/13 10:14:33;;;;;;;5.45;2.10;;;30.10;54.40;;;;;;5055757;28;20045;-66
2022/08/13 10:16:59;;;;;;;3.80;1.80;;;30.80;53.50;;;;;;5055585;28;20027;-65
2022/08/13 10:19:25;;;;;;;4.47;1.63;;;30.60;50.90;;;;;;5074888;28;20068;-65
2022/08/13 10:21:51;;;;;;;5.22;1.45;;;29.90;48.10;;;;;;5059220;28;20064;-65
2022/08/13 10:24:17;;;;;;;5.28;1.65;;;29.30;50.70;;;;;;5055460;28;20029;-66
2022/08/13 10:26:43;;;;;;;5.43;1.60;;;30.10;48.10;;;;;;5069856;28;20376;-65
2022/08/13 10:29:10;;;;;;;4.88;1.50;;;31.00;46.20;;;;;;5075409;28;20020;-66
2022/08/13 10:31:36;;;;;;;2.78;1.23;;;31.60;45.60;;;;;;5078446;28;20321;-66
2022/08/13 10:34:03;;;;;;;4.47;1.30;;;31.80;43.90;;;;;;5075405;28;20012;-66
2022/08/13 10:36:30;;;;;;;3.85;1.52;;;32.10;43.50;;;;;;5074212;28;20047;-66
2022/08/13 10:38:56;;;;;;;5.13;1.50;;;33.20;44.00;;;;;;5074743;28;20032;-66
2022/08/13 10:41:24;;;;;;;3.42;1.45;;;33.90;43.00;;;;;;5073108;28;20078;-66
2022/08/13 10:43:50;;;;;;;3.55;1.50;;;33.90;43.40;;;;;;5079820;28;20028;-66
2022/08/13 10:46:17;;;;;;;6.25;1.40;;;34.10;44.50;;;;;;5078751;28;20040;-66
2022/08/13 10:48:46;;;;;;;4.68;1.42;;;34.30;43.60;;;;;;5072011;28;20032;-66
2022/08/13 10:51:11;;;;;;;5.35;1.50;;;34.60;40.60;;;;;;5071863;28;20115;-65
2022/08/13 10:53:58;;;;;;;4.70;1.50;;;33.70;41.40;;;;;;5079612;28;20432;-65
2022/08/13 10:56:27;;;;;;;3.88;1.50;;;33.40;41.80;;;;;;5077561;28;20020;-65
2022/08/13 10:58:56;;;;;;;4.30;1.70;;;33.50;40.20;;;;;;5077419;28;20025;-65
2022/08/13 11:01:24;;;;;;;5.25;1.35;;;33.70;41.20;;;;;;5077096;28;20317;-65
2022/08/13 11:03:58;;;;;;;4.13;1.50;;;34.00;39.20;;;;;;5068908;28;20410;-66
2022/08/13 11:06:27;;;;;;;3.65;1.40;;;34.10;40.60;;;;;;5078151;28;20036;-65
2022/08/13 11:08:56;;;;;;;5.80;1.50;;;34.30;39.50;;;;;;5058286;28;20044;-65
2022/08/13 11:11:22;;;;;;;3.15;1.33;;;34.10;40.10;;;;;;5058536;28;20729;-65
2022/08/13 11:13:48;;;;;;;3.42;1.30;;;33.60;40.80;;;;;;5057939;28;20028;-66
2022/08/13 11:18:58;;;;;;;3.42;1.30;;;33.80;41.10;;;;;;5077260;28;20032;-65
2022/08/13 11:21:24;;;;;;;5.18;1.20;;;33.90;40.00;;;;;;5075775;28;20076;-65
2022/08/13 11:23:51;;;;;;;4.85;1.40;;;34.20;40.00;;;;;;5058261;28;20145;-66
2022/08/13 11:26:17;;;;;;;3.60;1.23;;;33.70;40.50;;;;;;5056434;28;20337;-65
2022/08/13 11:28:42;;;;;;;2.90;1.10;;;33.80;40.50;;;;;;5079624;28;20033;-66
2022/08/13 11:31:08;;;;;;;2.50;1.13;;;33.70;41.50;;;;;;5078022;28;20186;-65
2022/08/13 11:33:34;;;;;;;4.35;1.25;;;33.30;40.60;;;;;;5075458;28;20108;-66
2022/08/13 11:36:00;;;;;;;3.65;1.20;;;33.20;40.70;;;;;;5077186;28;20317;-66
2022/08/13 11:38:25;;;;;;;2.78;1.30;;;32.90;41.00;;;;;;5078859;28;20364;-66
2022/08/13 11:40:57;;;;;;;3.53;1.25;;;32.50;41.20;;;;;;5075864;28;20318;-66
2022/08/13 11:43:29;;;;;;;3.88;1.40;;;32.80;41.40;;;;;;5060351;28;20079;-66
2022/08/13 11:45:56;;;;;;;6.20;1.30;;;33.00;41.70;;;;;;5057600;28;20025;-66
2022/08/13 11:48:22;;;;;;;4.25;1.30;;;32.90;41.70;;;;;;5075612;28;20025;-66
2022/08/13 11:50:48;;;;;;;3.33;1.40;;;32.40;40.50;;;;;;5076461;28;20059;-66
2022/08/13 11:53:17;;;;;;;5.30;1.23;;;32.10;41.70;;;;;;5061259;28;20321;-66
2022/08/13 11:55:43;;;;;;;5.07;1.60;;;31.80;41.60;;;;;;5055933;28;20021;-66
2022/08/13 11:58:09;;;;;;;3.63;1.50;;;31.60;42.20;;;;;;5073280;28;20473;-64
2022/08/13 12:00:40;;;;;;;3.58;1.20;;;31.70;41.80;;;;;;5077476;28;20107;-64
2022/08/13 12:03:06;;;;;;;3.65;1.27;;;31.80;42.30;;;;;;5063304;28;20021;-64
2022/08/13 12:05:32;;;;;;;3.25;1.40;;;31.90;42.80;;;;;;5072218;28;20036;-64
2022/08/13 12:07:59;;;;;;;3.45;1.20;;;32.10;43.20;;;;;;5077166;28;20040;-67
2022/08/13 12:10:24;;;;;;;2.67;1.50;;;32.20;41.50;;;;;;5074655;28;20024;-66
2022/08/13 12:12:51;;;;;;;4.78;1.50;;;31.80;41.30;;;;;;5057453;28;20317;-66
2022/08/13 12:15:16;;;;;;;3.22;1.50;;;31.70;42.70;;;;;;5057137;28;20425;-66
2022/08/13 12:17:47;;;;;;;6.22;1.48;;;31.60;41.10;;;;;;5078009;28;20024;-66
2022/08/13 12:20:16;;;;;;;3.25;1.50;;;31.50;42.20;;;;;;5077258;28;20432;-66
2022/08/13 12:22:41;;;;;;;4.65;1.40;;;31.50;42.60;;;;;;5058199;28;20033;-66
2022/08/13 12:25:08;;;;;;;4.00;1.48;;;31.50;41.70;;;;;;5055786;28;20036;-66
2022/08/13 12:27:35;;;;;;;5.20;1.30;;;31.50;41.90;;;;;;5076745;28;20041;-66
2022/08/13 12:30:01;;;;;;;4.25;1.40;;;31.40;42.70;;;;;;5076721;28;20025;-66
2022/08/13 12:32:27;;;;;;;3.08;1.23;;;31.70;41.20;;;;;;5060549;28;20049;-66
2022/08/13 12:34:52;;;;;;;3.05;1.40;;;31.70;42.10;;;;;;5056919;28;20442;-66
2022/08/13 12:37:18;;;;;;;4.53;1.40;;;31.90;40.80;;;;;;5058921;28;20402;-66
2022/08/13 12:39:43;;;;;;;2.80;1.20;;;31.80;41.30;;;;;;5055518;28;20317;-66
2022/08/13 12:42:09;;;;;;;4.57;1.30;;;32.00;40.80;;;;;;5057029;28;20041;-66
2022/08/13 12:44:35;;;;;;;6.15;1.38;;;32.20;40.90;;;;;;5056526;28;20025;-66
2022/08/13 12:47:01;;;;;;;3.75;1.40;;;32.10;40.50;;;;;;5070247;28;20029;-66
2022/08/13 12:49:28;;;;;;;2.92;1.20;;;31.90;41.10;;;;;;5076500;28;20349;-66
2022/08/13 12:51:54;;;;;;;5.22;1.40;;;32.00;41.20;;;;;;5064544;28;20103;-66
2022/08/13 12:54:21;;;;;;;3.45;1.23;;;32.10;40.20;;;;;;5056325;28;20071;-66
2022/08/13 12:56:46;;;;;;;3.85;1.15;;;32.10;40.90;;;;;;5069272;28;20023;-66
2022/08/13 12:59:12;;;;;;;3.13;1.00;;;32.40;40.40;;;;;;5076383;28;20028;-66
2022/08/13 13:01:38;;;;;;;5.13;1.45;;;32.40;40.30;;;;;;5067662;28;20461;-66
2022/08/13 13:04:03;;;;;;;4.72;1.35;;;32.40;39.90;;;;;;5056328;28;20080;-66
2022/08/13 13:06:29;;;;;;;3.03;1.40;;;32.50;40.30;;;;;;5065041;28;20165;-66
2022/08/13 13:08:55;;;;;;;4.32;1.35;;;32.50;40.60;;;;;;5074381;28;20037;-66
2022/08/13 13:11:20;;;;;;;3.22;1.13;;;32.80;41.00;;;;;;5063883;28;20021;-66